Belleair, FL (33756)

5:49 AM EDT on September 19, 2014 (GMT -0400)
South Greenwood | Change Station
CLOSE
Current Station
Personal Weather Station
Location: Clearwater, FL
Elevation: 40 ft
Nearby Weather Stations

Elev 40 ft 27.94 °N, 82.79 °W | Updated 22 seconds ago

Partly Cloudy
Partly Cloudy
77.2 °F
Feels Like 79 °F
N
1.0
Wind Variable Wind from SE
Gusts 2.0 mph

Today
High -- | Low -- °F
--% Chance of Precip.
Yesterday
High -- | Low -- °F
Precip. -- in
7:18 AM 7:31 PM
Waning Crescent, 20% visible
Pressure 29.90 in
Visibility 10.0 miles
Clouds Clear
Heat Index 79 °F
Dew Point 74 °F
Humidity 89%
Rainfall 0.00 in
Snow Depth Not available.
UV 0 out of 12
Pollen 6.70 out of 12
Air Quality Not available.
Flu Activity Not available.
METAR KPIE 190853Z AUTO 10004KT 10SM CLR 26/23 A2989 RMK AO2 SLP123 T02610228 58009

More Conditions Fewer Conditions

Pressure 29.90 in
Visibility 10.0 miles
Clouds Clear
Heat Index 79 °F
Dew Point 74 °F
Humidity 89%
Rainfall 0.00 in
Snow Depth Not available.
UV 0 out of 12
Pollen 6.70 out of 12
Air Quality Not available.
Flu Activity Not available.
METAR KPIE 190853Z AUTO 10004KT 10SM CLR 26/23 A2989 RMK AO2 SLP123 T02610228 58009

More Conditions Fewer Conditions

10-Day Weather Forecast

Almanac

Astronomy

Sep. 19, 2014 Rise Set
Actual Time 7:18 AM EDT 7:31 PM EDT
Civil Twilight 6:54 AM EDT 7:54 PM EDT
Nautical Twilight 6:27 AM EDT 8:21 PM EDT
Astronomical Twilight 5:59 AM EDT 8:49 PM EDT
Moon 3:19 AM EDT 4:44 PM EDT
Length of Visible Light 12h 59m
Length of Day
12h 12m
Tomorrow will be 1m 39s shorter.
Waning Crescent, 20% of the Moon is Illuminated
Today
Waning Crescent
Sep 24
New
Oct 1
First Quarter
Oct 8
Full
Oct 15
Last Quarter

Today's Extremes

State Highs State Lows

Community

WunderPhotos

Upload Photos

1,754,583 photos uploaded!

Nearby

Air Quality

  Air Quality AQ Index Pollutant
Friday Good
PM2.5
Friday Good
OZONE

Snow Depth

Station Depth Elevation
No new snow has been reported.

Earthquake Activity

City Distance Mag. Time & Date
No recent earthquake activity has been reported nearby.
Minimum magnitude displayed is 2.5.

Coastal Water Temperatures

Place Temperature
Port Manatee, FL 84.9 °F
St Petersburg, FL 86.0 °F
Old Port Tampa, FL 84.9 °F

Nearby Weather Stations